Time;durP1;ratioP1;P1;durP2;ratioP2;P2;SDS_P1;SDS_P2;PMS_P1;PMS_P2;Temp;Humidity;BMP_temperature;BMP_pressure;BME280_temperature;BME280_humidity;BME280_pressure;Samples;Min_cycle;Max_cycle;Signal;HPM_P1;HPM_P2
2022/11/08 00:02:32;;;;;;;3.72;1.70;;;;;;;12.41;49.79;100753.25;4911893;28;20047;-69
2022/11/08 00:16:03;;;;;;;4.70;1.50;;;;;;;12.39;49.42;100764.38;4929858;28;20052;-71
2022/11/08 00:18:31;;;;;;;5.20;1.60;;;;;;;12.40;49.42;100755.13;4914697;29;20405;-69
2022/11/08 00:21:02;;;;;;;3.10;1.60;;;;;;;12.43;49.86;100767.69;4912279;29;20036;-69
2022/11/08 00:23:31;;;;;;;3.55;1.52;;;;;;;12.43;49.87;100759.47;4911463;29;20048;-69
2022/11/08 00:25:59;;;;;;;3.65;1.67;;;;;;;12.42;49.42;100766.84;4911949;29;20417;-71
2022/11/08 00:28:27;;;;;;;3.55;1.50;;;;;;;12.42;49.58;100766.84;4910220;29;20564;-70
2022/11/08 00:30:54;;;;;;;3.17;1.48;;;;;;;12.43;49.71;100760.34;4916010;29;20044;-71
2022/11/08 00:33:22;;;;;;;4.03;1.42;;;;;;;12.44;49.72;100756.56;4907396;29;20040;-71
2022/11/08 00:35:50;;;;;;;6.70;1.70;;;;;;;12.45;49.50;100762.94;4912322;29;20374;-71
2022/11/08 00:38:18;;;;;;;5.88;1.60;;;;;;;12.46;49.29;100764.63;4914963;29;20135;-69
2022/11/08 00:40:47;;;;;;;3.25;1.40;;;;;;;12.47;49.75;100761.75;4912490;29;20494;-70
2022/11/08 00:43:15;;;;;;;4.00;1.65;;;;;;;12.46;49.89;100768.25;4916607;29;20040;-70
2022/11/08 00:45:43;;;;;;;5.50;1.40;;;;;;;12.47;49.31;100767.25;4912411;29;20116;-71
2022/11/08 00:48:11;;;;;;;3.47;1.60;;;;;;;12.49;49.35;100767.09;4910344;29;20403;-70
2022/11/08 00:50:39;;;;;;;3.20;1.40;;;;;;;12.49;49.43;100772.59;4925071;29;20052;-70
2022/11/08 00:53:07;;;;;;;3.03;1.30;;;;;;;12.49;49.49;100761.59;4921969;29;20078;-70
2022/11/08 00:55:35;;;;;;;4.72;1.40;;;;;;;12.49;49.15;100767.09;4922255;29;20048;-71
2022/11/08 00:58:04;;;;;;;2.75;1.38;;;;;;;12.51;49.14;100776.06;4911198;29;20059;-70
2022/11/08 01:00:32;;;;;;;4.00;1.50;;;;;;;12.49;49.24;100762.47;4908517;29;20051;-70
2022/11/08 01:05:45;;;;;;;3.15;1.17;;;;;;;12.50;49.15;100760.59;4907931;29;20090;-70
2022/11/08 01:08:15;;;;;;;5.00;1.50;;;;;;;12.50;49.23;100758.72;4911688;29;20063;-71
2022/11/08 01:10:44;;;;;;;3.15;1.30;;;;;;;12.51;49.26;100754.09;4915233;29;20040;-70
2022/11/08 01:13:13;;;;;;;3.53;1.40;;;;;;;12.53;49.61;100751.22;4911490;29;20044;-70
2022/11/08 01:15:43;;;;;;;4.50;1.40;;;;;;;12.53;49.43;100748.47;4910531;29;20417;-70
2022/11/08 01:18:12;;;;;;;4.70;1.50;;;;;;;12.53;49.02;100743.84;4905521;29;20056;-70
2022/11/08 01:20:41;;;;;;;4.32;1.45;;;;;;;12.54;49.26;100742.81;4907612;29;20044;-70
2022/11/08 01:23:10;;;;;;;5.10;1.45;;;;;;;12.54;48.94;100742.81;4917381;29;20040;-70
2022/11/08 01:25:40;;;;;;;2.63;1.38;;;;;;;12.55;49.15;100744.53;4903971;29;20042;-70
2022/11/08 01:28:10;;;;;;;2.88;1.33;;;;;;;12.55;49.33;100739.03;4915536;29;20111;-70
2022/11/08 01:30:41;;;;;;;4.30;1.30;;;;;;;12.57;49.03;100736.16;4914602;29;20501;-71
2022/11/08 01:33:10;;;;;;;3.83;1.50;;;;;;;12.57;49.39;100725.16;4915086;29;20139;-69
2022/11/08 01:35:39;;;;;;;2.25;1.30;;;;;;;12.57;49.09;100731.53;4923552;29;20044;-71
2022/11/08 01:38:08;;;;;;;3.58;1.40;;;;;;;12.57;49.66;100722.41;4916688;29;20509;-71
2022/11/08 01:40:43;;;;;;;2.55;1.20;;;;;;;12.60;49.27;100720.25;4913772;29;20047;-70
2022/11/08 01:43:39;;;;;;;4.93;1.35;;;;;;;12.57;49.16;100701.31;4910128;29;20041;-71
2022/11/08 01:46:31;;;;;;;3.75;1.38;;;;;;;12.58;49.11;100704.94;4918578;29;20048;-71
2022/11/08 01:49:17;;;;;;;3.00;1.27;;;;;;;12.60;49.07;100709.28;4915121;29;20047;-71
2022/11/08 01:51:49;;;;;;;2.50;1.35;;;;;;;12.60;49.14;100709.28;4910123;29;20056;-70
2022/11/08 01:54:21;;;;;;;3.85;1.45;;;;;;;12.58;49.43;100694.81;4914699;29;20119;-70
2022/11/08 01:56:49;;;;;;;2.30;1.40;;;;;;;12.60;49.58;100701.03;4912201;29;20056;-70
2022/11/08 01:59:18;;;;;;;3.47;1.30;;;;;;;12.61;49.10;100708.25;4916573;29;20052;-70
2022/11/08 02:01:48;;;;;;;2.85;1.42;;;;;;;12.62;49.59;100703.66;4914167;29;20052;-70
2022/11/08 02:04:17;;;;;;;2.42;1.27;;;;;;;12.62;49.02;100704.53;4908996;29;20044;-71
2022/11/08 02:06:44;;;;;;;2.58;1.30;;;;;;;12.61;49.10;100702.78;4912476;29;20428;-71
2022/11/08 02:09:16;;;;;;;4.88;1.60;;;;;;;12.64;48.95;100704.34;4912844;29;20044;-70
2022/11/08 02:11:46;;;;;;;3.28;1.48;;;;;;;12.61;49.71;100710.13;4904467;29;20135;-70
2022/11/08 02:14:16;;;;;;;5.10;1.63;;;;;;;12.63;49.06;100703.50;4909298;29;20036;-71
2022/11/08 02:16:44;;;;;;;3.53;1.55;;;;;;;12.64;49.27;100701.63;4917878;29;20512;-70
2022/11/08 02:19:20;;;;;;;4.07;1.60;;;;;;;12.66;49.22;100694.09;4916096;29;20050;-70
2022/11/08 02:21:55;;;;;;;4.13;1.60;;;;;;;12.65;49.34;100689.63;4927631;29;20048;-71
2022/11/08 02:24:24;;;;;;;4.10;1.40;;;;;;;12.64;49.02;100690.63;4903205;29;20434;-71
2022/11/08 02:26:56;;;;;;;4.00;1.50;;;;;;;12.62;49.03;100690.81;4914314;29;20060;-70
2022/11/08 02:29:29;;;;;;;4.45;1.52;;;;;;;12.64;49.01;100690.63;4914201;29;20056;-69
2022/11/08 02:31:58;;;;;;;2.97;1.45;;;;;;;12.63;49.30;100691.66;4911916;29;20069;-70
2022/11/08 02:34:29;;;;;;;3.53;1.40;;;;;;;12.63;48.99;100684.28;4912716;29;20100;-70
2022/11/08 02:36:57;;;;;;;4.57;1.73;;;;;;;12.62;49.36;100690.81;4923673;29;20062;-70
2022/11/08 02:39:27;;;;;;;2.85;1.20;;;;;;;12.63;49.21;100692.50;4914297;29;20048;-70
2022/11/08 02:41:55;;;;;;;3.53;1.48;;;;;;;12.61;49.05;100683.56;4913963;29;20091;-70
2022/11/08 02:44:23;;;;;;;2.90;1.52;;;;;;;12.61;49.02;100683.56;4914826;29;20424;-70
2022/11/08 02:46:51;;;;;;;3.45;1.40;;;;;;;12.61;49.29;100685.44;4913327;29;20070;-71
2022/11/08 02:49:19;;;;;;;3.42;1.60;;;;;;;12.60;49.33;100673.59;4912978;29;20040;-70
2022/11/08 02:51:47;;;;;;;3.95;1.50;;;;;;;12.60;49.47;100668.09;4912952;29;20051;-70
2022/11/08 02:54:14;;;;;;;3.63;1.50;;;;;;;12.59;49.46;100663.63;4913979;29;20050;-70
2022/11/08 02:56:44;;;;;;;2.50;1.45;;;;;;;12.60;48.89;100665.34;4913995;29;20520;-71
2022/11/08 02:59:11;;;;;;;5.13;1.50;;;;;;;12.59;49.30;100663.63;4914544;29;20055;-70
2022/11/08 03:01:39;;;;;;;3.45;1.77;;;;;;;12.57;48.84;100649.16;4911584;29;20044;-69
2022/11/08 03:04:07;;;;;;;3.35;1.60;;;;;;;12.58;48.86;100648.16;4913797;29;20131;-69
2022/11/08 03:06:35;;;;;;;3.13;1.67;;;;;;;12.56;48.84;100639.19;4904312;29;20062;-68
2022/11/08 03:09:04;;;;;;;3.35;1.40;;;;;;;12.56;48.83;100632.84;4912346;29;20422;-68
2022/11/08 03:11:32;;;;;;;3.53;1.60;;;;;;;12.54;48.91;100627.53;4913019;29;20092;-69
2022/11/08 03:14:01;;;;;;;3.67;1.80;;;;;;;12.55;49.25;100625.63;4913342;29;20139;-68
2022/11/08 03:16:29;;;;;;;3.90;1.63;;;;;;;12.51;48.87;100625.06;4912820;29;20082;-69
2022/11/08 03:18:57;;;;;;;3.75;1.70;;;;;;;12.49;48.88;100618.88;4913789;29;20111;-69
2022/11/08 03:21:26;;;;;;;5.88;2.10;;;;;;;12.46;49.12;100610.94;4912732;29;20100;-69
2022/11/08 03:23:54;;;;;;;2.92;1.70;;;;;;;12.45;49.13;100614.72;4913393;29;20414;-69
2022/11/08 03:26:22;;;;;;;3.60;1.80;;;;;;;12.44;48.94;100613.00;4910971;29;20050;-69
2022/11/08 03:28:49;;;;;;;5.18;1.95;;;;;;;12.41;49.03;100589.44;4913166;29;20107;-70
2022/11/08 03:31:19;;;;;;;3.72;2.20;;;;;;;12.41;48.88;100596.81;4893651;29;20048;-70
2022/11/08 03:33:46;;;;;;;4.15;2.22;;;;;;;12.37;49.42;100593.53;4894662;29;20097;-70
2022/11/08 03:36:14;;;;;;;5.85;2.17;;;;;;;12.35;49.40;100590.06;4901924;29;20127;-68
2022/11/08 03:38:42;;;;;;;5.43;1.70;;;;;;;12.34;49.17;100585.59;4896929;29;20052;-69
2022/11/08 03:41:10;;;;;;;4.00;2.15;;;;;;;12.33;49.31;100591.22;4893043;29;20048;-69
2022/11/08 03:43:37;;;;;;;4.38;1.70;;;;;;;12.32;48.96;100589.50;4920551;29;20524;-69
2022/11/08 03:46:05;;;;;;;4.35;1.90;;;;;;;12.29;48.89;100578.84;4919069;29;20050;-69
2022/11/08 03:48:34;;;;;;;3.75;1.67;;;;;;;12.29;49.47;100579.72;4912699;29;20040;-69
2022/11/08 03:51:02;;;;;;;4.43;1.90;;;;;;;12.26;49.37;100574.50;4912976;29;20055;-68
2022/11/08 03:53:30;;;;;;;3.42;1.73;;;;;;;12.25;48.87;100580.16;4912919;29;20052;-69
2022/11/08 03:55:59;;;;;;;3.53;1.77;;;;;;;12.24;49.30;100576.53;4912306;29;20054;-70
2022/11/08 03:58:27;;;;;;;4.68;1.90;;;;;;;12.22;48.92;100575.81;4920447;29;20036;-69
2022/11/08 04:00:56;;;;;;;3.45;1.70;;;;;;;12.21;49.22;100570.50;4926330;29;20378;-69
2022/11/08 04:03:24;;;;;;;3.80;1.70;;;;;;;12.20;48.97;100577.00;4924972;29;20055;-69
2022/11/08 04:05:54;;;;;;;4.15;1.98;;;;;;;12.21;49.17;100576.00;4912641;29;20532;-68
2022/11/08 04:08:22;;;;;;;4.32;1.90;;;;;;;12.17;49.55;100580.03;4898446;29;20059;-69
2022/11/08 04:10:53;;;;;;;4.35;2.15;;;;;;;12.13;49.06;100569.34;4912725;29;20043;-69
2022/11/08 04:16:08;;;;;;;4.15;2.30;;;;;;;12.11;49.12;100574.16;4914039;29;20048;-69
2022/11/08 04:21:28;;;;;;;3.17;1.60;;;;;;;12.10;49.70;100572.41;4899315;29;20535;-69
2022/11/08 04:23:56;;;;;;;3.22;1.60;;;;;;;12.08;49.33;100559.88;4911909;29;20497;-68
2022/11/08 04:26:24;;;;;;;3.40;1.58;;;;;;;12.08;49.22;100560.72;4896903;29;20067;-69
2022/11/08 04:28:52;;;;;;;2.88;1.80;;;;;;;12.06;49.08;100560.00;4911710;29;20052;-68
2022/11/08 04:31:20;;;;;;;2.80;1.60;;;;;;;12.07;49.23;100564.47;4896555;29;20326;-69
2022/11/08 04:33:48;;;;;;;4.75;2.08;;;;;;;12.06;49.71;100567.38;4912766;29;20048;-68
2022/11/08 04:36:16;;;;;;;2.70;1.70;;;;;;;12.06;49.37;100564.63;4911520;29;20135;-68
2022/11/08 04:38:48;;;;;;;5.63;2.35;;;;;;;12.07;49.29;100553.50;4912404;29;20382;-68
2022/11/08 04:41:17;;;;;;;4.90;1.90;;;;;;;12.05;49.25;100550.03;4911921;29;20048;-69
2022/11/08 04:43:45;;;;;;;3.72;2.00;;;;;;;12.04;49.36;100542.88;4904960;29;20101;-68
2022/11/08 04:46:15;;;;;;;3.78;1.85;;;;;;;12.06;49.22;100545.44;4916572;29;20131;-68
2022/11/08 04:48:44;;;;;;;2.90;1.70;;;;;;;12.05;49.40;100557.41;4897924;29;20096;-68
2022/11/08 04:51:13;;;;;;;4.38;1.92;;;;;;;12.05;49.31;100539.06;4893455;29;20513;-69
2022/11/08 04:53:42;;;;;;;3.67;1.70;;;;;;;12.03;49.70;100521.94;4907709;29;20052;-69
2022/11/08 04:56:13;;;;;;;4.72;2.10;;;;;;;12.04;49.12;100528.28;4904763;29;20048;-69
2022/11/08 04:58:43;;;;;;;3.65;1.80;;;;;;;12.01;49.24;100512.97;4911324;29;20048;-68
2022/11/08 05:01:13;;;;;;;4.22;2.17;;;;;;;12.02;49.53;100502.88;4911984;29;20143;-67
2022/11/08 05:03:41;;;;;;;3.80;1.92;;;;;;;12.00;49.48;100500.28;4911915;29;20048;-68
2022/11/08 05:06:12;;;;;;;4.72;1.85;;;;;;;12.00;49.22;100503.03;4910800;29;20051;-69
2022/11/08 05:08:40;;;;;;;3.95;1.80;;;;;;;11.96;49.02;100495.28;4911451;29;20134;-69
2022/11/08 05:11:11;;;;;;;3.45;1.65;;;;;;;11.97;49.22;100494.22;4911356;29;20048;-69
2022/11/08 05:13:39;;;;;;;4.78;1.90;;;;;;;11.95;49.04;100491.66;4910192;29;20272;-69
2022/11/08 05:16:10;;;;;;;3.67;1.90;;;;;;;11.94;49.19;100486.31;4909993;29;20454;-69
2022/11/08 05:18:38;;;;;;;4.13;1.85;;;;;;;11.91;48.95;100475.66;4911287;29;20044;-68
2022/11/08 05:23:56;;;;;;;4.20;1.77;;;;;;;11.85;49.13;100474.38;4914595;29;20406;-68
2022/11/08 05:26:26;;;;;;;3.55;1.75;;;;;;;11.86;48.95;100456.91;4914320;29;20513;-67
2022/11/08 05:28:54;;;;;;;4.55;1.98;;;;;;;11.83;49.24;100454.47;4916143;29;20059;-68
2022/11/08 05:31:22;;;;;;;4.82;1.85;;;;;;;11.81;49.37;100453.75;4914731;29;20281;-69
2022/11/08 05:33:51;;;;;;;3.75;1.80;;;;;;;11.80;48.82;100448.44;4914332;29;20547;-71
2022/11/08 05:36:19;;;;;;;3.70;1.77;;;;;;;11.79;48.89;100452.22;4914899;29;20055;-68
2022/11/08 05:38:47;;;;;;;3.00;1.83;;;;;;;11.77;48.94;100443.25;4915933;29;20047;-70
2022/11/08 05:41:17;;;;;;;3.78;1.70;;;;;;;11.76;49.22;100436.91;4920023;29;20060;-68
2022/11/08 05:43:48;;;;;;;4.13;1.75;;;;;;;11.73;48.89;100440.81;4926721;29;20059;-68
2022/11/08 05:46:17;;;;;;;3.65;2.00;;;;;;;11.72;49.38;100435.47;4919089;29;20055;-69
2022/11/08 05:48:46;;;;;;;2.47;1.70;;;;;;;11.71;49.24;100439.25;4914795;29;20052;-69
2022/11/08 05:51:15;;;;;;;2.92;1.98;;;;;;;11.70;48.83;100434.78;4913975;29;20059;-68
2022/11/08 05:53:45;;;;;;;3.70;1.77;;;;;;;11.66;48.83;100431.47;4930012;29;20103;-70
2022/11/08 05:56:13;;;;;;;3.35;1.88;;;;;;;11.65;48.88;100428.88;4918591;29;20040;-68
2022/11/08 05:58:41;;;;;;;2.95;1.83;;;;;;;11.63;49.18;100417.22;4902898;29;20040;-68
2022/11/08 06:01:12;;;;;;;3.72;2.00;;;;;;;11.64;48.91;100414.31;4912398;29;20115;-69
2022/11/08 06:03:40;;;;;;;3.30;1.83;;;;;;;11.60;48.67;100390.94;4897497;29;20119;-69
2022/11/08 06:06:11;;;;;;;3.40;1.83;;;;;;;11.59;48.68;100394.69;4914376;29;20047;-68
2022/11/08 06:08:39;;;;;;;3.28;1.50;;;;;;;11.57;48.91;100384.88;4913399;29;20090;-68
2022/11/08 06:11:13;;;;;;;3.00;1.70;;;;;;;11.56;48.85;100381.28;4907551;29;20056;-69
2022/11/08 06:13:41;;;;;;;3.90;1.70;;;;;;;11.56;49.16;100374.94;4928302;23;20096;-79
2022/11/08 06:16:15;;;;;;;3.30;1.65;;;;;;;11.53;49.11;100372.53;4904308;29;20233;-79
2022/11/08 06:18:43;;;;;;;2.67;1.52;;;;;;;11.52;48.75;100373.53;4901454;29;20051;-79
2022/11/08 06:21:13;;;;;;;2.80;1.60;;;;;;;11.51;48.83;100382.75;4914999;29;20185;-79
2022/11/08 06:23:40;;;;;;;3.85;1.70;;;;;;;11.49;48.63;100388.38;4912444;29;20068;-79
2022/11/08 06:26:09;;;;;;;3.08;1.60;;;;;;;11.49;49.13;100384.78;4924782;29;20046;-79
2022/11/08 06:28:37;;;;;;;3.80;1.70;;;;;;;11.47;48.62;100395.91;4915197;29;20104;-79
2022/11/08 06:31:05;;;;;;;3.28;1.80;;;;;;;11.47;48.82;100403.28;4921598;29;20063;-79
2022/11/08 06:33:35;;;;;;;3.28;1.70;;;;;;;11.48;48.94;100400.38;4928168;29;20036;-79
2022/11/08 06:36:03;;;;;;;2.53;1.50;;;;;;;11.47;48.66;100395.06;4909898;29;20063;-78
2022/11/08 06:38:31;;;;;;;3.38;1.45;;;;;;;11.47;48.88;100401.38;4928711;29;20100;-79
2022/11/08 06:40:59;;;;;;;4.22;1.50;;;;;;;11.47;48.67;100393.16;4927294;29;20055;-79
2022/11/08 06:43:28;;;;;;;3.10;1.45;;;;;;;11.48;48.48;100394.88;4930006;29;20036;-79
2022/11/08 06:46:00;;;;;;;4.15;1.85;;;;;;;11.50;48.33;100401.09;4939758;29;20472;-79
2022/11/08 06:48:28;;;;;;;2.40;1.58;;;;;;;11.46;48.81;100393.34;4921341;29;20044;-79
2022/11/08 06:51:04;;;;;;;4.13;1.58;;;;;;;11.49;48.66;100388.38;4918497;29;20056;-79
2022/11/08 06:53:33;;;;;;;3.22;1.38;;;;;;;11.49;48.71;100393.00;4919622;29;20051;-79
2022/11/08 06:56:01;;;;;;;2.35;1.42;;;;;;;11.49;48.73;100393.88;4925784;29;20059;-80
2022/11/08 06:58:30;;;;;;;3.03;1.35;;;;;;;11.50;48.50;100401.09;4915072;29;20040;-79
2022/11/08 07:01:03;;;;;;;2.92;1.70;;;;;;;11.53;48.42;100397.19;4934252;29;20047;-79
2022/11/08 07:03:31;;;;;;;2.00;1.33;;;;;;;11.50;48.64;100400.22;4926091;29;20066;-79
2022/11/08 07:06:01;;;;;;;2.45;1.20;;;;;;;11.52;48.54;100404.53;4913053;29;20307;-78
2022/11/08 07:08:30;;;;;;;3.13;1.35;;;;;;;11.53;48.18;100397.19;4914079;29;20590;-79
2022/11/08 07:10:58;;;;;;;2.95;1.35;;;;;;;11.53;48.35;100408.16;4913163;29;20108;-79
2022/11/08 07:13:26;;;;;;;2.42;1.40;;;;;;;11.54;48.16;100407.13;4921983;29;20414;-79
2022/11/08 07:15:57;;;;;;;4.00;1.25;;;;;;;11.57;48.19;100415.91;4920614;29;20052;-79
2022/11/08 07:18:26;;;;;;;3.92;1.50;;;;;;;11.58;47.98;100419.50;4917159;29;20064;-80
2022/11/08 07:20:58;;;;;;;3.05;1.60;;;;;;;11.60;48.20;100422.97;4927039;29;20304;-79
2022/11/08 07:23:26;;;;;;;3.08;1.48;;;;;;;11.58;48.07;100427.72;4923977;29;20059;-80
2022/11/08 07:25:55;;;;;;;3.35;1.30;;;;;;;11.62;47.95;100415.50;4936981;29;20040;-79
2022/11/08 07:28:23;;;;;;;3.08;1.33;;;;;;;11.62;48.25;100423.72;4916092;29;20549;-80
2022/11/08 07:30:51;;;;;;;3.05;1.40;;;;;;;11.62;48.31;100410.88;4922735;29;20055;-80
2022/11/08 07:33:19;;;;;;;2.70;1.60;;;;;;;11.64;47.70;100399.72;4929133;29;20063;-81
2022/11/08 07:35:47;;;;;;;2.92;1.40;;;;;;;11.64;47.84;100406.09;4924215;29;20048;-80
2022/11/08 07:38:15;;;;;;;2.13;1.20;;;;;;;11.68;47.73;100406.66;4913922;29;20055;-81
2022/11/08 07:40:43;;;;;;;2.83;1.20;;;;;;;11.66;47.96;100409.53;4914126;29;20049;-80
2022/11/08 07:43:13;;;;;;;2.83;1.60;;;;;;;11.68;47.74;100403.91;4948837;28;20056;-79
2022/11/08 07:45:43;;;;;;;3.05;1.13;;;;;;;11.68;47.88;100413.00;4922518;29;20044;-80
2022/11/08 07:48:12;;;;;;;2.88;1.45;;;;;;;11.70;47.54;100413.72;4928885;29;20115;-80
2022/11/08 07:50:41;;;;;;;3.67;1.45;;;;;;;11.70;47.74;100421.09;4925112;29;20468;-80
2022/11/08 07:53:10;;;;;;;3.13;1.42;;;;;;;11.72;47.52;100416.28;4920150;29;20072;-80
2022/11/08 07:55:39;;;;;;;3.08;1.50;;;;;;;11.74;47.79;100430.72;4921723;29;20048;-80
2022/11/08 07:58:09;;;;;;;2.15;1.15;;;;;;;11.74;47.45;100430.72;4922044;29;20043;-80
2022/11/08 08:00:41;;;;;;;3.08;1.48;;;;;;;11.76;47.38;100445.13;4914538;29;20044;-79
2022/11/08 08:03:11;;;;;;;3.72;1.90;;;;;;;11.77;47.81;100433.16;4918309;29;20104;-79
2022/11/08 08:05:40;;;;;;;3.55;1.50;;;;;;;11.77;47.48;100435.03;4913514;29;20075;-80
2022/11/08 08:08:09;;;;;;;3.80;1.65;;;;;;;11.78;47.73;100432.16;4916853;29;20044;-79
2022/11/08 08:10:37;;;;;;;3.80;1.55;;;;;;;11.80;47.30;100413.63;4918983;29;20044;-79
2022/11/08 08:13:07;;;;;;;3.60;1.30;;;;;;;11.81;47.73;100415.38;4912915;29;20443;-79
2022/11/08 08:15:35;;;;;;;3.30;1.50;;;;;;;11.85;47.61;100424.16;4911811;29;20040;-79
2022/11/08 08:18:07;;;;;;;5.10;1.70;;;;;;;11.86;47.01;100424.03;4917214;29;20052;-79
2022/11/08 08:20:36;;;;;;;2.75;1.33;;;;;;;11.88;47.59;100423.88;4925205;29;20507;-80
2022/11/08 08:23:05;;;;;;;4.07;1.58;;;;;;;11.90;47.17;100419.06;4944527;29;20056;-80
2022/11/08 08:25:33;;;;;;;3.63;1.50;;;;;;;11.93;47.28;100427.00;4911340;29;20052;-79
2022/11/08 08:28:01;;;;;;;2.58;1.30;;;;;;;11.95;47.04;100419.50;4910903;29;20048;-79
2022/11/08 08:30:30;;;;;;;2.10;1.20;;;;;;;11.97;47.36;100412.81;4916341;29;20050;-78
2022/11/08 08:33:05;;;;;;;2.50;1.40;;;;;;;12.03;47.00;100430.56;4942070;28;20048;-79
2022/11/08 08:35:53;;;;;;;3.22;1.45;;;;;;;12.04;47.53;100435.91;4929478;29;20466;-80
2022/11/08 08:38:21;;;;;;;3.00;1.83;;;;;;;12.10;47.25;100437.16;4915348;29;20044;-79
2022/11/08 08:40:50;;;;;;;3.58;1.85;;;;;;;12.13;47.37;100422.28;4920274;29;20529;-79
2022/11/08 08:43:18;;;;;;;2.75;1.30;;;;;;;12.14;46.72;100435.81;4909764;29;20717;-79
2022/11/08 08:45:47;;;;;;;3.40;1.40;;;;;;;12.18;46.96;100433.63;4931691;29;20052;-80
2022/11/08 08:48:17;;;;;;;2.67;1.45;;;;;;;12.23;46.62;100432.13;4920917;29;20083;-80
2022/11/08 08:50:45;;;;;;;3.50;1.50;;;;;;;12.25;46.58;100431.97;4919710;29;20036;-80
2022/11/08 08:53:13;;;;;;;3.67;1.60;;;;;;;12.28;46.52;100423.44;4931844;28;20051;-78
2022/11/08 08:55:42;;;;;;;3.63;1.50;;;;;;;12.31;46.67;100426.72;4922857;29;20044;-79
2022/11/08 08:58:10;;;;;;;2.78;1.58;;;;;;;12.33;46.96;100416.47;4923799;29;20048;-80
2022/11/08 09:00:38;;;;;;;3.35;1.50;;;;;;;12.36;46.73;100427.13;4917748;29;20080;-78
2022/11/08 09:03:28;;;;;;;4.18;1.70;;;;;;;12.39;46.11;100409.47;4922778;29;20044;-79
2022/11/08 09:05:57;;;;;;;3.97;1.70;;;;;;;12.41;46.67;100426.66;4933925;29;20365;-79
2022/11/08 09:08:25;;;;;;;3.03;1.40;;;;;;;12.43;46.22;100421.88;4918555;29;20048;-79
2022/11/08 09:10:54;;;;;;;3.55;1.60;;;;;;;12.43;46.21;100409.03;4925043;29;20040;-79
2022/11/08 09:13:23;;;;;;;3.53;1.75;;;;;;;12.45;46.40;100420.72;4919366;29;20044;-79
2022/11/08 09:15:51;;;;;;;3.30;1.70;;;;;;;12.47;46.00;100426.03;4917804;29;20052;-79
2022/11/08 09:18:19;;;;;;;3.88;1.73;;;;;;;12.48;45.93;100428.63;4938685;29;20044;-79
2022/11/08 09:20:48;;;;;;;3.25;1.95;;;;;;;12.50;46.23;100442.19;4928287;29;20044;-80
2022/11/08 09:23:16;;;;;;;3.13;1.55;;;;;;;12.51;45.97;100435.69;4910687;29;20044;-78
2022/11/08 09:25:45;;;;;;;3.72;1.50;;;;;;;12.50;46.12;100429.31;4923299;29;20056;-81
2022/11/08 09:28:13;;;;;;;2.58;1.60;;;;;;;12.53;46.33;100436.41;4918874;28;20526;-78
2022/11/08 09:30:41;;;;;;;3.03;1.60;;;;;;;12.53;46.02;100439.13;4917801;29;20044;-81
2022/11/08 09:33:08;;;;;;;3.45;1.63;;;;;;;12.54;45.88;100440.88;4934452;29;20136;-80
2022/11/08 09:35:36;;;;;;;3.22;1.58;;;;;;;12.56;46.28;100443.44;4920844;29;20134;-80
2022/11/08 09:38:06;;;;;;;2.72;1.40;;;;;;;12.57;45.84;100437.78;4933011;29;20071;-80
2022/11/08 09:40:39;;;;;;;2.97;1.60;;;;;;;12.59;45.60;100427.53;4918794;29;20047;-81
2022/11/08 09:43:28;;;;;;;3.08;1.60;;;;;;;12.61;45.49;100425.50;4939282;29;20575;-81
2022/11/08 09:45:57;;;;;;;3.13;1.40;;;;;;;12.57;45.59;100418.56;4921908;29;20052;-80
2022/11/08 09:48:31;;;;;;;3.25;1.80;;;;;;;12.60;45.80;100420.16;4932109;29;20455;-80
2022/11/08 09:51:04;;;;;;;2.90;1.65;;;;;;;12.60;45.52;100420.16;4916978;29;20049;-81
2022/11/08 09:53:40;;;;;;;3.47;1.67;;;;;;;12.58;45.25;100420.31;4921945;29;20100;-81
2022/11/08 09:56:16;;;;;;;2.95;1.45;;;;;;;12.61;44.97;100422.75;4931609;29;20047;-79
2022/11/08 09:58:50;;;;;;;2.88;1.67;;;;;;;12.61;45.60;100422.75;4919038;29;20150;-82
2022/11/08 10:01:18;;;;;;;4.57;1.67;;;;;;;12.59;45.77;100412.94;4934896;29;20515;-80
2022/11/08 10:03:57;;;;;;;3.22;1.60;;;;;;;12.62;45.33;100405.28;4934437;29;20063;-80
2022/11/08 10:06:57;;;;;;;3.75;1.40;;;;;;;12.62;44.90;100397.06;4930293;29;20099;-80
2022/11/08 10:09:44;;;;;;;2.95;1.38;;;;;;;12.61;44.74;100398.03;4920758;29;20052;-79
2022/11/08 10:12:21;;;;;;;2.63;1.60;;;;;;;12.62;45.29;100391.56;4919255;29;20051;-81
2022/11/08 10:15:05;;;;;;;4.15;1.50;;;;;;;12.63;44.65;100393.25;4922411;29;20071;-79
2022/11/08 10:17:50;;;;;;;2.05;1.23;;;;;;;12.64;45.01;100386.75;4924879;29;20051;-79
2022/11/08 10:20:34;;;;;;;3.13;1.52;;;;;;;12.64;44.69;100389.50;4919861;29;20048;-80
2022/11/08 10:23:16;;;;;;;3.08;1.42;;;;;;;12.64;45.08;100391.38;4923443;29;20044;-81
2022/11/08 10:25:49;;;;;;;2.40;1.10;;;;;;;12.62;44.84;100369.59;4915836;29;20056;-80
2022/11/08 10:28:21;;;;;;;2.70;1.40;;;;;;;12.63;44.96;100382.28;4920937;29;20040;-80
2022/11/08 10:30:52;;;;;;;4.05;1.58;;;;;;;12.63;44.90;100373.16;4933923;29;20045;-79
2022/11/08 10:33:24;;;;;;;2.83;1.42;;;;;;;12.66;45.21;100371.00;4915121;29;20136;-80
2022/11/08 10:35:57;;;;;;;1.70;1.17;;;;;;;12.66;44.85;100367.38;4914414;29;20691;-79
2022/11/08 10:38:36;;;;;;;3.92;1.25;;;;;;;12.69;45.20;100369.81;4917934;29;20307;-80
2022/11/08 10:41:12;;;;;;;2.67;1.40;;;;;;;12.70;44.91;100369.66;4911086;29;20055;-80
2022/11/08 10:43:46;;;;;;;2.80;1.42;;;;;;;12.70;44.92;100368.78;4917513;29;20127;-80
2022/11/08 10:46:34;;;;;;;3.25;1.60;;;;;;;12.73;44.56;100372.06;4917680;29;20044;-80
2022/11/08 10:49:11;;;;;;;2.22;1.30;;;;;;;12.74;44.31;100362.81;4917080;29;20044;-81
2022/11/08 10:51:39;;;;;;;3.05;1.73;;;;;;;12.73;44.98;100366.56;4937136;29;20048;-80
2022/11/08 10:54:07;;;;;;;3.10;1.60;;;;;;;12.74;45.19;100354.56;4936042;29;20095;-79
2022/11/08 10:56:54;;;;;;;2.53;1.40;;;;;;;12.76;43.93;100362.66;4916836;29;20048;-79
2022/11/08 10:59:32;;;;;;;2.97;1.52;;;;;;;12.80;44.29;100361.28;4913262;29;20050;-80
2022/11/08 11:02:01;;;;;;;3.30;1.50;;;;;;;12.79;44.69;100357.69;4922547;29;20040;-79
2022/11/08 11:04:31;;;;;;;2.55;1.60;;;;;;;12.82;45.27;100349.13;4923814;29;20041;-79
2022/11/08 11:07:01;;;;;;;3.30;1.60;;;;;;;12.85;44.69;100329.59;4914546;29;20448;-81
2022/11/08 11:09:30;;;;;;;3.22;1.60;;;;;;;12.85;45.15;100335.09;4916247;29;20044;-79
2022/11/08 11:12:07;;;;;;;3.38;1.48;;;;;;;12.93;43.87;100355.38;4935017;29;20499;-80
2022/11/08 11:14:36;;;;;;;2.30;1.50;;;;;;;12.92;44.59;100343.53;4928210;29;20056;-79
2022/11/08 11:17:15;;;;;;;2.78;1.20;;;;;;;12.99;44.01;100343.75;4928088;29;20161;-80
2022/11/08 11:19:51;;;;;;;2.63;1.40;;;;;;;13.02;44.93;100337.94;4941183;29;20068;-79
2022/11/08 11:22:27;;;;;;;2.55;1.40;;;;;;;13.08;44.24;100326.28;4928251;28;20056;-79
2022/11/08 11:24:55;;;;;;;3.17;2.00;;;;;;;13.10;44.64;100329.75;4932128;29;20048;-79
2022/11/08 11:27:29;;;;;;;3.00;1.50;;;;;;;13.18;44.29;100325.16;4911963;29;20107;-80
2022/11/08 11:30:21;;;;;;;2.70;1.50;;;;;;;13.21;44.31;100316.56;4916308;29;20052;-81
2022/11/08 11:32:58;;;;;;;2.83;1.50;;;;;;;13.30;43.64;100327.59;4919230;29;20052;-81
2022/11/08 11:35:44;;;;;;;3.53;1.52;;;;;;;13.33;44.38;100327.28;4915096;29;20052;-80
2022/11/08 11:38:22;;;;;;;4.00;1.52;;;;;;;13.40;43.94;100333.81;4915772;29;20048;-79
2022/11/08 11:40:53;;;;;;;2.70;1.40;;;;;;;13.42;44.47;100326.28;4923695;29;20563;-80
2022/11/08 11:43:29;;;;;;;2.45;1.42;;;;;;;13.49;43.88;100338.31;4933696;29;20499;-79
2022/11/08 11:46:08;;;;;;;2.40;1.48;;;;;;;13.54;43.83;100324.94;4918474;29;20115;-79
2022/11/08 11:48:42;;;;;;;2.60;1.50;;;;;;;13.57;43.88;100320.00;4913036;29;20119;-79
2022/11/08 11:51:10;;;;;;;2.65;1.35;;;;;;;13.62;44.25;100322.25;4931729;29;20052;-79
2022/11/08 11:53:40;;;;;;;3.75;1.67;;;;;;;13.65;43.62;100316.41;4933551;28;20036;-79
2022/11/08 11:56:40;;;;;;;3.20;1.42;;;;;;;13.69;43.23;100328.81;4913996;29;20494;-79
2022/11/08 11:59:34;;;;;;;3.53;1.58;;;;;;;13.72;43.38;100319.34;4926202;29;20046;-80
2022/11/08 12:02:34;;;;;;;3.78;1.52;;;;;;;13.75;42.97;100325.41;4918841;29;20052;-80
2022/11/08 12:05:25;;;;;;;3.17;1.50;;;;;;;13.79;43.15;100324.00;4925657;29;20052;-79